createdAt,value
2018-10-05T00:01:12.931Z,10.10
2018-10-05T00:03:41.226Z,10.10
2018-10-05T00:06:09.540Z,10.00
2018-10-05T00:08:37.831Z,10.00
2018-10-05T00:11:06.715Z,10.00
2018-10-05T00:13:35.013Z,9.90
2018-10-05T00:16:03.351Z,9.90
2018-10-05T00:18:31.756Z,9.90
2018-10-05T00:21:00.065Z,9.80
2018-10-05T00:23:28.369Z,9.80
2018-10-05T00:25:56.679Z,9.80
2018-10-05T00:28:24.972Z,9.70
2018-10-05T00:30:53.323Z,9.70
2018-10-05T00:33:21.619Z,9.70
2018-10-05T00:35:50.003Z,9.60
2018-10-05T00:38:18.332Z,9.60
2018-10-05T00:40:46.646Z,9.60
2018-10-05T00:43:14.963Z,9.50
2018-10-05T00:45:43.284Z,9.50
2018-10-05T00:48:11.584Z,9.50
2018-10-05T00:50:39.896Z,9.50
2018-10-05T00:53:08.321Z,9.40
2018-10-05T00:55:36.535Z,9.40
2018-10-05T00:58:04.835Z,9.40
2018-10-05T01:00:33.151Z,9.40
2018-10-05T01:03:01.443Z,9.30
2018-10-05T01:05:29.757Z,9.30
2018-10-05T01:07:58.068Z,9.30
2018-10-05T01:10:26.412Z,9.30
2018-10-05T01:12:54.721Z,9.30
2018-10-05T01:15:23.068Z,9.30
2018-10-05T01:17:51.368Z,9.30
2018-10-05T01:20:19.678Z,9.30
2018-10-05T01:22:47.971Z,9.20
2018-10-05T01:25:16.279Z,9.20
2018-10-05T01:27:44.575Z,9.20
2018-10-05T01:30:13.392Z,9.20
2018-10-05T01:32:43.396Z,9.20
2018-10-05T01:35:12.007Z,9.20
2018-10-05T01:37:40.775Z,9.10
2018-10-05T01:40:09.139Z,9.10
2018-10-05T01:42:37.476Z,9.10
2018-10-05T01:45:05.975Z,9.10
2018-10-05T01:47:34.341Z,9.00
2018-10-05T01:50:02.686Z,9.00
2018-10-05T01:52:31.029Z,9.00
2018-10-05T01:54:59.337Z,9.00
2018-10-05T01:57:27.652Z,8.90
2018-10-05T01:59:55.959Z,8.90
2018-10-05T02:02:24.274Z,8.90
2018-10-05T02:04:52.597Z,8.90
2018-10-05T02:07:20.932Z,8.80
2018-10-05T02:09:49.245Z,8.80
2018-10-05T02:12:17.580Z,8.80
2018-10-05T02:14:45.889Z,8.80
2018-10-05T02:17:14.216Z,8.80
2018-10-05T02:19:42.524Z,8.80
2018-10-05T02:22:10.844Z,8.70
2018-10-05T02:24:39.142Z,8.70
2018-10-05T02:27:07.468Z,8.70
2018-10-05T02:29:35.772Z,8.70
2018-10-05T02:32:04.141Z,8.70
2018-10-05T02:34:32.448Z,8.70
2018-10-05T02:37:00.755Z,8.70
2018-10-05T02:39:29.053Z,8.70
2018-10-05T02:41:57.380Z,8.80
2018-10-05T02:44:25.692Z,8.80
2018-10-05T02:46:54.011Z,8.80
2018-10-05T02:49:22.328Z,8.80
2018-10-05T02:51:50.653Z,8.80
2018-10-05T02:54:18.952Z,8.80
2018-10-05T02:56:47.273Z,8.80
2018-10-05T02:59:15.576Z,8.80
2018-10-05T03:01:55.285Z,8.80
2018-10-05T03:04:23.592Z,8.80
2018-10-05T03:06:51.956Z,8.80
2018-10-05T03:09:20.718Z,8.80
2018-10-05T03:11:49.040Z,8.80
2018-10-05T03:14:17.340Z,8.70
2018-10-05T03:16:45.677Z,8.80
2018-10-05T03:19:13.989Z,8.70
2018-10-05T03:21:42.333Z,8.70
2018-10-05T03:24:10.637Z,8.70
2018-10-05T03:26:38.975Z,8.70
2018-10-05T03:29:07.397Z,8.70
2018-10-05T03:31:35.707Z,8.60
2018-10-05T03:34:04.014Z,8.60
2018-10-05T03:36:32.348Z,8.60
2018-10-05T03:39:00.656Z,8.60
2018-10-05T03:41:28.975Z,8.50
2018-10-05T03:43:57.302Z,8.50
2018-10-05T03:46:25.629Z,8.50
2018-10-05T03:48:53.947Z,8.50
2018-10-05T03:51:22.269Z,8.40
2018-10-05T03:53:50.578Z,8.40
2018-10-05T03:56:18.906Z,8.40
2018-10-05T03:58:47.200Z,8.40
2018-10-05T04:01:15.522Z,8.30
2018-10-05T04:03:43.849Z,8.30
2018-10-05T04:06:12.143Z,8.30
2018-10-05T04:08:40.474Z,8.30
2018-10-05T04:11:08.778Z,8.20
2018-10-05T04:13:37.090Z,8.20
2018-10-05T04:16:05.383Z,8.20
2018-10-05T04:18:33.714Z,8.10
2018-10-05T04:21:02.113Z,8.10
2018-10-05T04:23:30.439Z,8.10
2018-10-05T04:25:58.731Z,8.00
2018-10-05T04:28:27.045Z,8.00
2018-10-05T04:30:55.345Z,8.00
2018-10-05T04:33:23.659Z,7.90
2018-10-05T04:35:51.965Z,7.90
2018-10-05T04:38:20.283Z,7.90
2018-10-05T04:40:48.594Z,7.90
2018-10-05T04:43:16.931Z,7.80
2018-10-05T04:45:45.236Z,7.80
2018-10-05T04:48:13.558Z,7.80
2018-10-05T04:50:41.856Z,7.70
2018-10-05T04:53:10.180Z,7.70
2018-10-05T04:55:38.487Z,7.70
2018-10-05T04:58:06.791Z,7.70
2018-10-05T05:00:35.097Z,7.70
2018-10-05T05:03:03.431Z,7.60
2018-10-05T05:05:31.732Z,7.60
2018-10-05T05:08:00.062Z,7.60
2018-10-05T05:10:28.368Z,7.70
2018-10-05T05:12:56.741Z,7.70
2018-10-05T05:15:25.048Z,7.70
2018-10-05T05:17:53.375Z,7.70
2018-10-05T05:20:21.677Z,7.60
2018-10-05T05:22:50.002Z,7.70
2018-10-05T05:25:18.306Z,7.70
2018-10-05T05:27:46.637Z,7.70
2018-10-05T05:30:14.936Z,7.70
2018-10-05T05:32:43.247Z,7.70
2018-10-05T05:35:11.546Z,7.60
2018-10-05T05:37:39.864Z,7.60
2018-10-05T05:40:08.203Z,7.60
2018-10-05T05:42:36.546Z,7.60
2018-10-05T05:45:04.856Z,7.60
2018-10-05T05:47:33.193Z,7.60
2018-10-05T05:50:01.488Z,7.60
2018-10-05T05:52:29.819Z,7.60
2018-10-05T05:54:58.119Z,7.60
2018-10-05T05:57:26.433Z,7.60
2018-10-05T05:59:54.729Z,7.60
2018-10-05T06:02:23.050Z,7.60
2018-10-05T06:04:51.356Z,7.60
2018-10-05T06:07:19.758Z,7.60
2018-10-05T06:09:48.079Z,7.60
2018-10-05T06:12:16.392Z,7.60
2018-10-05T06:14:44.703Z,7.70
2018-10-05T06:17:13.025Z,7.60
2018-10-05T06:19:41.356Z,7.70
2018-10-05T06:22:09.834Z,7.70
2018-10-05T06:24:38.010Z,7.70
2018-10-05T06:27:06.515Z,7.70
2018-10-05T06:29:34.833Z,7.70
2018-10-05T06:32:03.124Z,7.70
2018-10-05T06:34:31.473Z,7.80
2018-10-05T06:36:59.785Z,7.80
2018-10-05T06:39:28.111Z,7.80
2018-10-05T06:41:56.475Z,7.80
2018-10-05T06:44:24.806Z,7.80
2018-10-05T06:46:53.140Z,7.90
2018-10-05T06:49:21.644Z,7.90
2018-10-05T06:51:49.992Z,8.00
2018-10-05T06:54:18.483Z,8.10
2018-10-05T06:56:46.798Z,8.10
2018-10-05T06:59:15.158Z,8.20
2018-10-05T07:01:43.467Z,8.20
2018-10-05T07:04:11.796Z,8.30
2018-10-05T07:06:40.124Z,8.40
2018-10-05T07:09:08.875Z,8.40
2018-10-05T07:11:37.342Z,8.50
2018-10-05T07:14:05.644Z,8.50
2018-10-05T07:16:33.952Z,8.60
2018-10-05T07:19:02.278Z,8.60
2018-10-05T07:21:30.672Z,8.70
2018-10-05T07:23:58.931Z,8.80
2018-10-05T07:26:27.239Z,8.80
2018-10-05T07:28:55.573Z,8.90
2018-10-05T07:31:23.885Z,9.00
2018-10-05T07:33:52.269Z,9.00
2018-10-05T07:36:20.577Z,9.10
2018-10-05T07:38:48.910Z,9.10
2018-10-05T07:41:17.211Z,9.20
2018-10-05T07:43:45.552Z,9.30
2018-10-05T07:46:13.859Z,9.30
2018-10-05T07:48:42.184Z,9.40
2018-10-05T07:51:10.479Z,9.50
2018-10-05T07:53:38.827Z,9.50
2018-10-05T07:56:07.391Z,9.60
2018-10-05T07:58:35.710Z,9.70
2018-10-05T08:01:04.013Z,9.70
2018-10-05T08:03:32.333Z,9.80
2018-10-05T08:06:00.652Z,9.90
2018-10-05T08:08:28.981Z,9.90
2018-10-05T08:10:57.324Z,10.00
2018-10-05T08:13:25.653Z,10.10
2018-10-05T08:15:53.962Z,10.20
2018-10-05T08:18:23.109Z,10.30
2018-10-05T08:20:51.485Z,10.30
2018-10-05T08:23:19.804Z,10.40
2018-10-05T08:25:48.134Z,10.50
2018-10-05T08:28:16.478Z,10.60
2018-10-05T08:30:44.855Z,10.70
2018-10-05T08:33:13.168Z,10.80
2018-10-05T08:35:41.533Z,10.90
2018-10-05T08:38:09.953Z,11.00
2018-10-05T08:40:38.290Z,11.10
2018-10-05T08:43:06.783Z,11.20
2018-10-05T08:45:35.117Z,11.30
2018-10-05T08:48:03.454Z,11.40
2018-10-05T08:50:31.795Z,11.50
2018-10-05T08:53:00.108Z,11.60
2018-10-05T08:55:28.455Z,11.70
2018-10-05T08:57:56.764Z,11.90
2018-10-05T09:00:25.156Z,12.00
2018-10-05T09:02:53.431Z,12.10
2018-10-05T09:05:21.760Z,12.20
2018-10-05T09:07:50.072Z,12.40
2018-10-05T09:10:18.407Z,12.50
2018-10-05T09:12:46.713Z,12.60
2018-10-05T09:15:15.052Z,12.70
2018-10-05T09:17:43.421Z,12.90
2018-10-05T09:20:11.716Z,13.00
2018-10-05T09:22:40.020Z,13.10
2018-10-05T09:25:08.363Z,13.30
2018-10-05T09:27:36.676Z,13.40
2018-10-05T09:30:05.019Z,13.50
2018-10-05T09:32:33.317Z,13.60
2018-10-05T09:35:01.655Z,13.70
2018-10-05T09:37:30.142Z,13.90
2018-10-05T09:39:58.360Z,14.00
2018-10-05T09:42:26.709Z,14.10
2018-10-05T09:44:55.090Z,14.30
2018-10-05T09:47:23.368Z,14.40
2018-10-05T09:49:51.692Z,14.50
2018-10-05T09:52:20.072Z,14.50
2018-10-05T09:54:48.338Z,14.70
2018-10-05T09:57:16.648Z,14.80
2018-10-05T09:59:45.056Z,14.90
2018-10-05T10:02:18.557Z,15.00
2018-10-05T10:04:46.953Z,15.10
2018-10-05T10:07:15.268Z,15.20
2018-10-05T10:09:43.597Z,15.30
2018-10-05T10:12:11.901Z,15.40
2018-10-05T10:14:40.222Z,15.50
2018-10-05T10:17:08.524Z,15.50
2018-10-05T10:19:36.896Z,15.60
2018-10-05T10:22:05.208Z,15.70
2018-10-05T10:24:33.535Z,15.80
2018-10-05T10:27:01.839Z,15.90
2018-10-05T10:29:30.254Z,16.10
2018-10-05T10:31:58.498Z,16.20
2018-10-05T10:34:26.861Z,16.30
2018-10-05T10:36:55.153Z,16.40
2018-10-05T10:39:23.460Z,16.40
2018-10-05T10:41:51.800Z,16.50
2018-10-05T10:44:20.132Z,16.60
2018-10-05T10:46:48.462Z,16.60
2018-10-05T10:49:16.772Z,16.70
2018-10-05T10:51:45.091Z,16.90
2018-10-05T10:54:13.450Z,17.00
2018-10-05T10:56:41.758Z,17.00
2018-10-05T10:59:10.058Z,17.10
2018-10-05T11:01:38.379Z,17.20
2018-10-05T11:04:06.800Z,17.30
2018-10-05T11:06:35.105Z,17.40
2018-10-05T11:09:04.774Z,17.50
2018-10-05T11:11:33.156Z,17.60
2018-10-05T11:14:01.465Z,17.70
2018-10-05T11:16:29.801Z,17.80
2018-10-05T11:18:58.112Z,17.90
2018-10-05T11:21:26.437Z,18.10
2018-10-05T11:23:54.745Z,18.20
2018-10-05T11:26:23.067Z,18.30
2018-10-05T11:28:51.375Z,18.40
2018-10-05T11:31:19.703Z,18.50
2018-10-05T11:33:48.011Z,18.60
2018-10-05T11:36:16.350Z,18.70
2018-10-05T11:38:44.664Z,18.90
2018-10-05T11:41:12.980Z,19.00
2018-10-05T11:43:41.309Z,19.20
2018-10-05T11:46:09.984Z,19.40
2018-10-05T11:48:38.288Z,19.50
2018-10-05T11:51:06.976Z,19.60
2018-10-05T11:53:35.343Z,19.80
2018-10-05T11:56:03.672Z,19.90
2018-10-05T11:58:31.966Z,20.00
2018-10-05T12:01:00.297Z,20.10
2018-10-05T12:03:28.610Z,20.20
2018-10-05T12:05:56.933Z,20.20
2018-10-05T12:08:25.251Z,20.30
2018-10-05T12:10:53.588Z,20.40
2018-10-05T12:13:21.896Z,20.50
2018-10-05T12:15:50.216Z,20.60
2018-10-05T12:18:18.545Z,20.70
2018-10-05T12:20:46.870Z,20.90
2018-10-05T12:23:15.178Z,21.00
2018-10-05T12:25:43.509Z,21.10
2018-10-05T12:28:11.803Z,21.20
2018-10-05T12:30:40.126Z,21.30
2018-10-05T12:33:08.513Z,21.30
2018-10-05T12:35:36.824Z,21.40
2018-10-05T12:38:05.169Z,21.50
2018-10-05T12:40:33.497Z,21.60
2018-10-05T12:43:01.812Z,21.70
2018-10-05T12:45:30.281Z,21.80
2018-10-05T12:47:58.749Z,21.90
2018-10-05T12:50:27.098Z,22.00
2018-10-05T12:52:55.404Z,22.10
2018-10-05T12:55:23.709Z,22.10
2018-10-05T12:57:52.062Z,22.10
2018-10-05T13:00:20.367Z,22.10
2018-10-05T13:02:48.698Z,22.10
2018-10-05T13:05:17.006Z,22.10
2018-10-05T13:07:45.330Z,22.10
2018-10-05T13:10:13.637Z,22.10
2018-10-05T13:12:41.953Z,22.20
2018-10-05T13:15:10.270Z,22.20
2018-10-05T13:17:38.614Z,22.20
2018-10-05T13:20:06.917Z,22.30
2018-10-05T13:22:35.239Z,22.30
2018-10-05T13:25:03.530Z,22.40
2018-10-05T13:27:31.850Z,22.40
2018-10-05T13:30:00.152Z,22.50
2018-10-05T13:32:28.476Z,22.50
2018-10-05T13:34:56.782Z,22.50
2018-10-05T13:37:25.143Z,22.40
2018-10-05T13:39:53.404Z,22.40
2018-10-05T13:42:21.722Z,22.40
2018-10-05T13:44:50.041Z,22.40
2018-10-05T13:47:18.367Z,22.40
2018-10-05T13:49:46.667Z,22.40
2018-10-05T13:52:14.979Z,22.40
2018-10-05T13:54:43.295Z,22.50
2018-10-05T13:57:11.608Z,22.50
2018-10-05T13:59:39.917Z,22.50
2018-10-05T14:02:08.325Z,22.40
2018-10-05T14:04:36.631Z,22.40
2018-10-05T14:07:04.970Z,22.50
2018-10-05T14:09:33.275Z,22.50
2018-10-05T14:12:01.591Z,22.40
2018-10-05T14:14:29.890Z,22.50
2018-10-05T14:16:58.195Z,22.50
2018-10-05T14:19:26.501Z,22.40
2018-10-05T14:21:54.842Z,22.40
2018-10-05T14:24:23.139Z,22.50
2018-10-05T14:26:51.452Z,22.40
2018-10-05T14:29:19.759Z,22.40
2018-10-05T14:31:48.077Z,22.40
2018-10-05T14:34:16.375Z,22.40
2018-10-05T14:36:44.688Z,22.40
2018-10-05T14:39:12.990Z,22.30
2018-10-05T14:41:41.419Z,22.30
2018-10-05T14:44:09.715Z,22.20
2018-10-05T14:46:38.030Z,22.20
2018-10-05T14:49:06.333Z,22.10
2018-10-05T14:51:34.646Z,22.10
2018-10-05T14:54:02.948Z,22.10
2018-10-05T14:56:31.259Z,22.00
2018-10-05T14:58:59.757Z,22.00
2018-10-05T15:01:28.092Z,21.90
2018-10-05T15:03:56.412Z,21.80
2018-10-05T15:06:24.714Z,21.80
2018-10-05T15:08:53.042Z,21.70
2018-10-05T15:11:21.353Z,21.70
2018-10-05T15:13:49.672Z,21.60
2018-10-05T15:16:17.972Z,21.50
2018-10-05T15:18:46.308Z,21.40
2018-10-05T15:21:14.649Z,21.40
2018-10-05T15:23:42.943Z,21.30
2018-10-05T15:26:11.259Z,21.20
2018-10-05T15:28:39.581Z,21.10
2018-10-05T15:31:07.887Z,21.00
2018-10-05T15:33:36.211Z,20.90
2018-10-05T15:36:04.512Z,20.90
2018-10-05T15:38:32.828Z,20.80
2018-10-05T15:41:01.129Z,20.80
2018-10-05T15:43:29.464Z,20.70
2018-10-05T15:46:06.266Z,20.60
2018-10-05T15:48:34.873Z,20.50
2018-10-05T15:51:03.839Z,20.50
2018-10-05T15:53:32.864Z,20.40
2018-10-05T15:56:01.194Z,20.30
2018-10-05T15:58:29.544Z,20.30
2018-10-05T16:00:57.837Z,20.20
2018-10-05T16:03:26.162Z,20.20
2018-10-05T16:05:54.503Z,20.20
2018-10-05T16:08:22.811Z,20.10
2018-10-05T16:10:51.102Z,20.00
2018-10-05T16:13:19.416Z,20.00
2018-10-05T16:15:47.716Z,19.90
2018-10-05T16:18:16.064Z,19.80
2018-10-05T16:20:44.372Z,19.80
2018-10-05T16:23:12.697Z,19.70
2018-10-05T16:25:40.989Z,19.60
2018-10-05T16:28:09.301Z,19.60
2018-10-05T16:30:37.596Z,19.60
2018-10-05T16:33:06.100Z,19.50
2018-10-05T16:35:34.402Z,19.40
2018-10-05T16:38:02.729Z,19.40
2018-10-05T16:40:31.024Z,19.30
2018-10-05T16:42:59.361Z,19.20
2018-10-05T16:45:27.699Z,19.10
2018-10-05T16:47:56.017Z,19.00
2018-10-05T16:50:24.317Z,18.90
2018-10-05T16:52:52.630Z,18.80
2018-10-05T16:55:21.032Z,18.70
2018-10-05T16:57:49.342Z,18.60
2018-10-05T17:00:17.640Z,18.50
2018-10-05T17:02:45.981Z,18.40
2018-10-05T17:05:14.281Z,18.30
2018-10-05T17:07:42.609Z,18.20
2018-10-05T17:10:10.943Z,18.10
2018-10-05T17:12:39.275Z,18.00
2018-10-05T17:15:07.579Z,17.90
2018-10-05T17:17:35.909Z,17.80
2018-10-05T17:20:04.223Z,17.70
2018-10-05T17:22:32.536Z,17.50
2018-10-05T17:25:00.854Z,17.50
2018-10-05T17:27:29.195Z,17.40
2018-10-05T17:29:57.525Z,17.30
2018-10-05T17:32:25.825Z,17.20
2018-10-05T17:34:54.167Z,17.10
2018-10-05T17:37:22.531Z,17.00
2018-10-05T17:39:50.838Z,17.00
2018-10-05T17:42:19.142Z,16.90
2018-10-05T17:44:47.480Z,16.80
2018-10-05T17:47:15.774Z,16.70
2018-10-05T17:49:44.082Z,16.60
2018-10-05T17:52:12.383Z,16.50
2018-10-05T17:54:40.734Z,16.40
2018-10-05T17:57:09.040Z,16.30
2018-10-05T17:59:37.476Z,16.30
2018-10-05T18:02:05.879Z,16.20
2018-10-05T18:04:34.214Z,16.10
2018-10-05T18:07:02.519Z,16.00
2018-10-05T18:09:30.841Z,15.90
2018-10-05T18:11:59.144Z,15.80
2018-10-05T18:14:27.464Z,15.70
2018-10-05T18:16:55.754Z,15.60
2018-10-05T18:19:24.088Z,15.50
2018-10-05T18:21:52.371Z,15.40
2018-10-05T18:24:20.703Z,15.30
2018-10-05T18:26:49.028Z,15.30
2018-10-05T18:29:17.356Z,15.20
2018-10-05T18:31:46.371Z,15.20
2018-10-05T18:34:14.754Z,15.10
2018-10-05T18:36:43.056Z,15.00
2018-10-05T18:39:11.516Z,15.00
2018-10-05T18:41:39.926Z,14.90
2018-10-05T18:44:08.264Z,14.80
2018-10-05T18:46:36.617Z,14.80
2018-10-05T18:49:05.301Z,14.70
2018-10-05T18:51:33.609Z,14.70
2018-10-05T18:54:02.366Z,14.60
2018-10-05T18:57:13.012Z,14.50
2018-10-05T18:59:41.400Z,14.50
2018-10-05T19:02:09.655Z,14.40
2018-10-05T19:04:37.977Z,14.40
2018-10-05T19:07:06.392Z,14.40
2018-10-05T19:09:34.636Z,14.30
2018-10-05T19:12:02.940Z,14.20
2018-10-05T19:14:31.298Z,14.20
2018-10-05T19:16:59.586Z,14.10
2018-10-05T19:19:27.972Z,14.10
2018-10-05T19:21:56.274Z,14.00
2018-10-05T19:24:24.597Z,14.00
2018-10-05T19:26:52.959Z,13.90
2018-10-05T19:29:21.251Z,13.90
2018-10-05T19:31:49.545Z,13.80
2018-10-05T19:34:17.869Z,13.80
2018-10-05T19:36:46.169Z,13.70
2018-10-05T19:39:14.484Z,13.70
2018-10-05T19:41:42.824Z,13.60
2018-10-05T19:44:11.520Z,13.60
2018-10-05T19:46:40.020Z,13.50
2018-10-05T19:49:08.368Z,13.50
2018-10-05T19:51:36.680Z,13.40
2018-10-05T19:54:05.007Z,13.40
2018-10-05T19:56:33.299Z,13.30
2018-10-05T19:59:01.619Z,13.30
2018-10-05T20:01:29.948Z,13.20
2018-10-05T20:03:58.271Z,13.20
2018-10-05T20:06:26.584Z,13.10
2018-10-05T20:08:54.907Z,13.10
2018-10-05T20:11:23.216Z,13.10
2018-10-05T20:13:51.515Z,13.00
2018-10-05T20:16:19.837Z,13.00
2018-10-05T20:18:48.140Z,12.90
2018-10-05T20:21:16.466Z,12.90
2018-10-05T20:23:44.761Z,12.90
2018-10-05T20:26:13.080Z,12.80
2018-10-05T20:28:41.373Z,12.80
2018-10-05T20:31:09.701Z,12.70
2018-10-05T20:33:37.995Z,12.70
2018-10-05T20:36:06.451Z,12.70
2018-10-05T20:38:34.727Z,12.60
2018-10-05T20:41:02.972Z,12.60
2018-10-05T20:43:31.282Z,12.50
2018-10-05T20:45:59.603Z,12.50
2018-10-05T20:48:27.891Z,12.50
2018-10-05T20:50:56.222Z,12.40
2018-10-05T20:53:24.525Z,12.40
2018-10-05T20:55:52.849Z,12.30
2018-10-05T20:58:21.138Z,12.30
2018-10-05T21:00:49.457Z,12.30
2018-10-05T21:03:17.759Z,12.20
2018-10-05T21:05:46.080Z,12.20
2018-10-05T21:08:14.384Z,12.20
2018-10-05T21:10:42.699Z,12.10
2018-10-05T21:13:10.996Z,12.10
2018-10-05T21:15:39.314Z,12.00
2018-10-05T21:18:07.609Z,12.00
2018-10-05T21:20:35.932Z,12.00
2018-10-05T21:23:04.237Z,11.90
2018-10-05T21:25:32.547Z,11.90
2018-10-05T21:28:00.850Z,11.80
2018-10-05T21:30:29.181Z,11.80
2018-10-05T21:32:57.604Z,11.80
2018-10-05T21:35:25.826Z,11.80
2018-10-05T21:37:54.115Z,11.70
2018-10-05T21:40:22.433Z,11.70
2018-10-05T21:42:50.751Z,11.70
2018-10-05T21:45:19.069Z,11.60
2018-10-05T21:47:47.371Z,11.60
2018-10-05T21:50:15.700Z,11.60
2018-10-05T21:52:44.021Z,11.60
2018-10-05T21:55:12.342Z,11.50
2018-10-05T21:57:40.720Z,11.50
2018-10-05T22:00:09.054Z,11.50
2018-10-05T22:02:37.447Z,11.50
2018-10-05T22:05:07.060Z,11.40
2018-10-05T22:07:35.514Z,11.40
2018-10-05T22:10:03.842Z,11.40
2018-10-05T22:12:32.147Z,11.40
2018-10-05T22:15:00.503Z,11.40
2018-10-05T22:17:28.992Z,11.40
2018-10-05T22:19:57.435Z,11.30
2018-10-05T22:22:25.745Z,11.30
2018-10-05T22:24:54.087Z,11.30
2018-10-05T22:27:22.382Z,11.30
2018-10-05T22:29:50.745Z,11.20
2018-10-05T22:32:19.059Z,11.20
2018-10-05T22:34:47.377Z,11.20
2018-10-05T22:37:15.701Z,11.10
2018-10-05T22:39:44.097Z,11.10
2018-10-05T22:42:12.411Z,11.10
2018-10-05T22:44:40.736Z,11.10
2018-10-05T22:47:09.039Z,11.10
2018-10-05T22:49:37.326Z,11.10
2018-10-05T22:52:05.642Z,11.00
2018-10-05T22:54:33.936Z,11.00
2018-10-05T22:57:02.256Z,11.00
2018-10-05T22:59:30.560Z,11.00
2018-10-05T23:01:58.889Z,11.10
2018-10-05T23:04:27.183Z,11.10
2018-10-05T23:06:55.494Z,11.10
2018-10-05T23:09:23.798Z,11.10
2018-10-05T23:11:52.104Z,11.10
2018-10-05T23:14:20.400Z,11.10
2018-10-05T23:16:48.712Z,11.10
2018-10-05T23:19:17.014Z,11.10
2018-10-05T23:21:45.351Z,11.20
2018-10-05T23:24:13.641Z,11.20
2018-10-05T23:26:41.958Z,11.20
2018-10-05T23:29:10.256Z,11.20
2018-10-05T23:31:38.563Z,11.10
2018-10-05T23:34:06.874Z,11.10
2018-10-05T23:36:35.178Z,11.10
2018-10-05T23:39:04.824Z,11.00
2018-10-05T23:41:33.142Z,11.00
2018-10-05T23:44:01.463Z,11.00
2018-10-05T23:46:29.779Z,11.00
2018-10-05T23:48:58.077Z,10.90
2018-10-05T23:51:26.401Z,10.90
2018-10-05T23:53:54.716Z,10.90
2018-10-05T23:56:23.036Z,10.80
2018-10-05T23:58:51.364Z,10.80
